createdAt,value
2022-09-04T00:01:17.749Z,99834.69
2022-09-04T00:04:00.795Z,99838.34
2022-09-04T00:06:38.432Z,99851.66
2022-09-04T00:09:27.921Z,99837.88
2022-09-04T00:12:10.510Z,99851.16
2022-09-04T00:14:49.719Z,99847.97
2022-09-04T00:17:59.489Z,99859.44
2022-09-04T00:20:53.773Z,99858.94
2022-09-04T00:23:28.243Z,99866.50
2022-09-04T00:26:17.222Z,99877.97
2022-09-04T00:28:56.239Z,99875.56
2022-09-04T00:32:14.223Z,99870.22
2022-09-04T00:35:16.660Z,99875.31
2022-09-04T00:37:57.612Z,99873.53
2022-09-04T00:40:39.758Z,99873.91
2022-09-04T00:43:36.287Z,99871.59
2022-09-04T00:46:52.138Z,99887.75
2022-09-04T00:49:57.467Z,99886.59
2022-09-04T00:53:15.807Z,99893.84
2022-09-04T00:56:47.470Z,99891.19
2022-09-04T00:59:56.427Z,99890.75
2022-09-04T01:02:54.452Z,99888.78
2022-09-04T01:05:34.596Z,99891.25
2022-09-04T01:12:18.651Z,99902.06
2022-09-04T01:15:15.619Z,99902.16
2022-09-04T01:18:11.801Z,99910.84
2022-09-04T01:21:17.299Z,99908.22
2022-09-04T01:23:53.767Z,99912.97
2022-09-04T01:26:45.953Z,99916.81
2022-09-04T01:29:57.253Z,99904.22
2022-09-04T01:32:48.812Z,99903.75
2022-09-04T01:35:39.894Z,99903.69
2022-09-04T01:38:41.144Z,99895.25
2022-09-04T01:41:16.267Z,99895.59
2022-09-04T01:43:44.332Z,99892.03
2022-09-04T01:46:45.668Z,99899.03
2022-09-04T01:49:31.680Z,99899.38
2022-09-04T01:53:01.955Z,99896.84
2022-09-04T01:55:59.363Z,99906.41
2022-09-04T01:58:57.408Z,99906.41
2022-09-04T02:02:04.801Z,99906.13
2022-09-04T02:05:08.206Z,99906.81
2022-09-04T02:07:55.088Z,99914.50
2022-09-04T02:17:00.844Z,99925.38
2022-09-04T02:26:10.877Z,99916.50
2022-09-04T02:29:20.700Z,99905.19
2022-09-04T02:32:09.651Z,99906.78
2022-09-04T02:35:10.007Z,99914.16
2022-09-04T02:38:15.928Z,99916.34
2022-09-04T02:41:01.709Z,99919.13
2022-09-04T02:44:10.472Z,99914.94
2022-09-04T02:47:01.492Z,99911.91
2022-09-04T02:50:20.849Z,99908.81
2022-09-04T02:53:18.502Z,99908.91
2022-09-04T02:56:13.996Z,99922.56
2022-09-04T02:59:34.730Z,99924.78
2022-09-04T03:02:11.898Z,99916.56
2022-09-04T03:05:21.524Z,99918.06
2022-09-04T03:08:01.925Z,99913.50
2022-09-04T03:10:43.835Z,99912.22
2022-09-04T03:13:50.956Z,99908.16
2022-09-04T03:16:24.507Z,99919.59
2022-09-04T03:19:21.640Z,99922.13
2022-09-04T03:22:20.303Z,99920.97
2022-09-04T03:25:28.336Z,99924.03
2022-09-04T03:27:55.989Z,99930.41
2022-09-04T03:30:23.526Z,99922.84
2022-09-04T03:33:43.801Z,99922.56
2022-09-04T03:36:43.713Z,99932.56
2022-09-04T03:39:25.965Z,99931.84
2022-09-04T03:42:15.254Z,99938.41
2022-09-04T03:45:27.820Z,99938.28
2022-09-04T03:48:40.343Z,99943.59
2022-09-04T03:51:18.188Z,99945.22
2022-09-04T03:54:26.058Z,99951.63
2022-09-04T03:57:36.884Z,99953.47
2022-09-04T04:00:18.453Z,99955.56
2022-09-04T04:03:22.129Z,99945.84
2022-09-04T04:06:05.675Z,99945.69
2022-09-04T04:09:11.855Z,99955.31
2022-09-04T04:12:14.216Z,99963.81
2022-09-04T04:15:09.360Z,99972.91
2022-09-04T04:18:13.458Z,99977.50
2022-09-04T04:21:07.518Z,99992.41
2022-09-04T04:24:14.931Z,99985.03
2022-09-04T04:26:54.083Z,99985.75
2022-09-04T04:30:10.497Z,99991.97
2022-09-04T04:32:37.987Z,99989.97
2022-09-04T04:35:08.739Z,99994.41
2022-09-04T04:38:03.357Z,99997.53
2022-09-04T04:41:05.559Z,99992.13
2022-09-04T04:43:51.765Z,100002.66
2022-09-04T04:47:02.867Z,100003.69
2022-09-04T04:49:57.258Z,100017.25
2022-09-04T04:52:51.279Z,100015.03
2022-09-04T04:55:55.174Z,100029.97
2022-09-04T04:58:59.108Z,100036.22
2022-09-04T05:01:53.384Z,100040.91
2022-09-04T05:04:36.226Z,100031.69
2022-09-04T05:07:43.182Z,100043.53
2022-09-04T05:10:39.684Z,100035.16
2022-09-04T05:13:28.702Z,100041.28
2022-09-04T05:16:24.596Z,100030.38
2022-09-04T05:19:15.166Z,100039.06
2022-09-04T05:21:57.560Z,100055.53
2022-09-04T05:24:45.953Z,100058.66
2022-09-04T05:27:43.331Z,100064.38
2022-09-04T05:30:47.704Z,100064.41
2022-09-04T05:40:13.324Z,100087.28
2022-09-04T05:43:24.381Z,100087.00
2022-09-04T05:46:25.295Z,100088.03
2022-09-04T05:49:01.717Z,100088.50
2022-09-04T05:52:03.375Z,100092.81
2022-09-04T05:54:54.665Z,100090.72
2022-09-04T05:58:00.774Z,100092.38
2022-09-04T06:00:44.869Z,100098.38
2022-09-04T06:03:42.397Z,100103.72
2022-09-04T06:06:23.332Z,100106.59
2022-09-04T06:09:52.724Z,100106.53
2022-09-04T06:12:41.937Z,100097.28
2022-09-04T06:15:38.616Z,100093.81
2022-09-04T06:18:23.442Z,100088.72
2022-09-04T06:21:29.659Z,100089.13
2022-09-04T06:24:14.821Z,100081.06
2022-09-04T06:27:07.067Z,100087.94
2022-09-04T06:29:40.055Z,100088.66
2022-09-04T06:32:56.705Z,100089.22
2022-09-04T06:36:02.309Z,100077.50
2022-09-04T06:38:48.785Z,100075.34
2022-09-04T06:41:45.923Z,100097.25
2022-09-04T06:44:42.080Z,100098.72
2022-09-04T06:47:20.629Z,100085.72
2022-09-04T06:50:09.778Z,100091.72
2022-09-04T06:53:03.530Z,100087.75
2022-09-04T06:55:58.329Z,100088.44
2022-09-04T06:58:44.380Z,100087.31
2022-09-04T07:01:26.351Z,100095.88
2022-09-04T07:04:20.618Z,100088.69
2022-09-04T07:06:50.962Z,100085.97
2022-09-04T07:09:31.077Z,100075.25
2022-09-04T07:12:38.600Z,100077.59
2022-09-04T07:15:33.931Z,100065.78
2022-09-04T07:18:25.813Z,100068.09
2022-09-04T07:21:30.326Z,100073.50
2022-09-04T07:24:32.734Z,100066.97
2022-09-04T07:27:22.994Z,100063.50
2022-09-04T07:30:14.979Z,100064.66
2022-09-04T07:33:06.058Z,100066.19
2022-09-04T07:36:12.984Z,100075.34
2022-09-04T07:39:01.740Z,100069.69
2022-09-04T07:41:43.106Z,100070.41
2022-09-04T07:44:24.390Z,100063.19
2022-09-04T07:47:19.970Z,100068.19
2022-09-04T07:50:24.010Z,100070.09
2022-09-04T07:53:31.073Z,100080.41
2022-09-04T07:56:13.292Z,100064.34
2022-09-04T07:59:10.984Z,100078.53
2022-09-04T08:02:07.798Z,100074.69
2022-09-04T08:05:31.504Z,100076.50
2022-09-04T08:08:25.025Z,100077.25
2022-09-04T08:11:04.181Z,100086.09
2022-09-04T08:14:28.188Z,100088.41
2022-09-04T08:17:25.259Z,100082.97
2022-09-04T08:20:46.796Z,100087.56
2022-09-04T08:43:47.835Z,100065.56
2022-09-04T08:46:44.705Z,100069.19
2022-09-04T08:50:18.455Z,100062.78
2022-09-04T08:53:07.498Z,100064.66
2022-09-04T08:56:08.526Z,100053.72
2022-09-04T09:02:16.937Z,100062.63
2022-09-04T09:35:09.275Z,100066.56
2022-09-04T09:37:57.531Z,100069.53
2022-09-04T09:41:05.689Z,100076.59
2022-09-04T09:43:54.850Z,100078.66
2022-09-04T09:46:53.444Z,100085.88
2022-09-04T09:50:28.158Z,100080.41
2022-09-04T09:53:47.443Z,100076.34
2022-09-04T09:56:29.742Z,100070.09
2022-09-04T09:59:42.376Z,100070.03
2022-09-04T10:02:26.601Z,100067.16
2022-09-04T10:05:19.624Z,100059.97
2022-09-04T10:08:12.593Z,100056.00
2022-09-04T10:11:10.733Z,100042.03
2022-09-04T10:30:20.901Z,100041.50
2022-09-04T10:33:30.195Z,100046.28
2022-09-04T10:36:59.965Z,100051.56
2022-09-04T10:40:31.509Z,100045.28
2022-09-04T10:43:55.699Z,100033.78
2022-09-04T10:47:13.508Z,100042.50
2022-09-04T10:50:13.474Z,100041.25
2022-09-04T10:53:11.826Z,100031.59
2022-09-04T10:56:06.603Z,100014.03
2022-09-04T10:59:10.352Z,100007.19
2022-09-04T11:02:22.802Z,100004.34
2022-09-04T11:05:21.300Z,100005.47
2022-09-04T11:08:20.187Z,100007.03
2022-09-04T11:11:07.801Z,100005.63
2022-09-04T11:14:01.227Z,99991.66
2022-09-04T11:17:21.371Z,99987.13
2022-09-04T11:20:42.049Z,99978.00
2022-09-04T11:24:13.945Z,99974.09
2022-09-04T11:27:07.455Z,99974.88
2022-09-04T11:33:37.574Z,99977.53
2022-09-04T11:36:29.967Z,99983.25
2022-09-04T11:39:35.228Z,99979.09
2022-09-04T11:54:59.518Z,99955.38
2022-09-04T11:57:44.916Z,99955.44
2022-09-04T12:00:20.978Z,99955.22
2022-09-04T12:03:27.044Z,99950.34
2022-09-04T12:06:15.844Z,99935.63
2022-09-04T12:09:44.163Z,99931.81
2022-09-04T12:12:57.998Z,99933.66
2022-09-04T12:16:10.813Z,99925.72
2022-09-04T12:19:42.370Z,99929.75
2022-09-04T12:22:57.053Z,99926.19
2022-09-04T12:26:07.494Z,99918.19
2022-09-04T12:29:26.348Z,99918.25
2022-09-04T12:49:17.804Z,99907.13
2022-09-04T12:52:23.309Z,99907.13
2022-09-04T12:55:10.035Z,99910.16
2022-09-04T12:57:56.916Z,99911.50
2022-09-04T13:00:40.770Z,99913.75
2022-09-04T13:03:41.501Z,99901.94
2022-09-04T13:06:28.588Z,99903.25
2022-09-04T13:09:32.290Z,99903.22
2022-09-04T13:12:09.766Z,99911.94
2022-09-04T13:15:11.422Z,99915.09
2022-09-04T13:17:43.670Z,99898.09
2022-09-04T13:20:29.172Z,99904.47
2022-09-04T13:23:46.450Z,99901.25
2022-09-04T13:26:51.688Z,99893.81
2022-09-04T13:30:03.217Z,99890.22
2022-09-04T13:32:50.734Z,99894.44
2022-09-04T13:35:55.432Z,99882.56
2022-09-04T13:38:57.462Z,99883.50
2022-09-04T13:42:13.477Z,99884.81
2022-09-04T13:45:03.959Z,99883.50
2022-09-04T13:47:52.260Z,99885.34
2022-09-04T13:50:48.957Z,99887.19
2022-09-04T13:53:27.708Z,99889.31
2022-09-04T13:56:00.108Z,99878.97
2022-09-04T13:58:51.523Z,99887.06
2022-09-04T14:01:25.818Z,99898.69
2022-09-04T14:04:11.430Z,99906.91
2022-09-04T14:06:39.694Z,99901.41
2022-09-04T14:09:09.081Z,99899.59
2022-09-04T14:11:40.544Z,99901.31
2022-09-04T14:15:08.099Z,99898.00
2022-09-04T14:17:57.279Z,99894.75
2022-09-04T14:20:34.363Z,99889.72
2022-09-04T14:23:27.707Z,99891.75
2022-09-04T14:26:38.141Z,99890.94
2022-09-04T14:29:32.754Z,99886.34
2022-09-04T14:32:12.183Z,99896.19
2022-09-04T14:35:02.891Z,99894.22
2022-09-04T14:37:54.854Z,99890.38
2022-09-04T14:40:34.366Z,99887.59
2022-09-04T14:43:47.665Z,99875.88
2022-09-04T14:46:28.688Z,99878.81
2022-09-04T14:49:24.366Z,99876.91
2022-09-04T14:51:57.625Z,99870.72
2022-09-04T14:54:53.348Z,99865.91
2022-09-04T14:57:55.351Z,99882.88
2022-09-04T15:00:24.885Z,99884.97
2022-09-04T15:03:25.761Z,99871.72
2022-09-04T15:06:21.325Z,99887.47
2022-09-04T15:08:54.952Z,99888.66
2022-09-04T15:11:45.028Z,99893.66
2022-09-04T15:14:47.301Z,99895.00
2022-09-04T15:17:29.197Z,99901.69
2022-09-04T15:20:22.756Z,99904.66
2022-09-04T15:23:05.961Z,99903.50
2022-09-04T15:26:02.197Z,99891.53
2022-09-04T15:28:52.406Z,99884.38
2022-09-04T15:31:29.875Z,99892.22
2022-09-04T15:34:22.407Z,99890.44
2022-09-04T15:36:52.966Z,99898.81
2022-09-04T15:40:12.683Z,99903.28
2022-09-04T15:42:55.405Z,99900.88
2022-09-04T15:45:50.374Z,99900.50
2022-09-04T15:48:54.440Z,99899.91
2022-09-04T15:52:10.543Z,99899.41
2022-09-04T15:54:42.287Z,99906.53
2022-09-04T15:58:05.638Z,99897.38
2022-09-04T16:00:53.970Z,99899.78
2022-09-04T16:03:45.654Z,99894.38
2022-09-04T16:06:40.199Z,99884.34
2022-09-04T16:09:47.324Z,99891.91
2022-09-04T16:12:31.387Z,99890.00
2022-09-04T16:15:33.239Z,99889.34
2022-09-04T16:18:19.362Z,99896.50
2022-09-04T16:20:57.620Z,99890.66
2022-09-04T16:23:35.810Z,99896.59
2022-09-04T16:26:24.317Z,99899.34
2022-09-04T16:29:01.931Z,99906.53
2022-09-04T16:31:35.056Z,99898.25
2022-09-04T16:34:44.065Z,99905.13
2022-09-04T16:37:34.536Z,99902.06
2022-09-04T16:40:37.895Z,99894.16
2022-09-04T16:43:09.720Z,99897.88
2022-09-04T16:46:09.607Z,99905.41
2022-09-04T16:49:08.662Z,99898.47
2022-09-04T16:51:44.806Z,99904.22
2022-09-04T16:54:31.323Z,99905.00
2022-09-04T16:57:12.307Z,99912.13
2022-09-04T16:59:45.949Z,99916.81
2022-09-04T17:02:48.893Z,99915.97
2022-09-04T17:05:46.080Z,99921.19
2022-09-04T17:08:40.317Z,99923.22
2022-09-04T17:11:34.830Z,99930.94
2022-09-04T17:14:24.498Z,99936.56
2022-09-04T17:17:12.494Z,99941.13
2022-09-04T17:22:02.436Z,99948.47
2022-09-04T17:27:53.563Z,99954.34
2022-09-04T17:29:12.872Z,99955.38
2022-09-04T17:29:56.327Z,99945.25
2022-09-04T17:37:11.957Z,99960.69
2022-09-04T17:40:35.865Z,99963.34
2022-09-04T17:40:48.574Z,99958.78
2022-09-04T17:42:42.050Z,99963.88
2022-09-04T17:46:08.449Z,99960.88
2022-09-04T17:48:49.467Z,99968.09
2022-09-04T17:51:24.339Z,99977.59
2022-09-04T17:54:00.689Z,99978.84
2022-09-04T17:56:48.676Z,99988.47
2022-09-04T18:00:24.156Z,99984.63
2022-09-04T18:03:36.012Z,99989.22
2022-09-04T18:06:40.362Z,99991.88
2022-09-04T18:09:32.643Z,100006.50
2022-09-04T18:12:31.947Z,100012.66
2022-09-04T18:15:34.322Z,100019.53
2022-09-04T18:18:37.778Z,100016.47
2022-09-04T18:21:25.373Z,100025.25
2022-09-04T18:24:05.045Z,100032.94
2022-09-04T18:26:50.381Z,100034.81
2022-09-04T18:29:58.230Z,100036.75
2022-09-04T18:37:12.508Z,100032.53
2022-09-04T18:37:17.419Z,100043.22
2022-09-04T18:40:11.103Z,100053.47
2022-09-04T18:50:30.006Z,100061.53
2022-09-04T18:50:39.229Z,100062.72
2022-09-04T18:50:45.515Z,100071.50
2022-09-04T18:53:01.214Z,100060.75
2022-09-04T18:55:57.330Z,100053.13
2022-09-04T18:58:46.977Z,100051.88
2022-09-04T19:01:26.832Z,100055.25
2022-09-04T19:04:33.330Z,100055.38
2022-09-04T19:07:12.495Z,100057.66
2022-09-04T19:10:04.521Z,100062.13
2022-09-04T19:12:53.940Z,100072.84
2022-09-04T19:16:01.520Z,100066.31
2022-09-04T19:18:56.278Z,100074.25
2022-09-04T19:21:37.328Z,100072.75
2022-09-04T19:24:38.309Z,100078.84
2022-09-04T19:28:09.699Z,100078.06
2022-09-04T19:30:59.959Z,100068.44
2022-09-04T19:34:00.191Z,100069.72
2022-09-04T19:38:55.807Z,100066.31
2022-09-04T19:46:04.420Z,100061.16
2022-09-04T19:46:09.468Z,100058.97
2022-09-04T19:47:29.107Z,100070.00
2022-09-04T19:53:22.201Z,100073.84
2022-09-04T19:54:03.368Z,100085.53
2022-09-04T19:57:12.759Z,100083.63
2022-09-04T19:59:46.045Z,100085.22
2022-09-04T20:02:31.956Z,100087.03
2022-09-04T20:05:05.015Z,100084.00
2022-09-04T20:08:17.018Z,100088.78
2022-09-04T20:11:00.295Z,100091.13
2022-09-04T20:14:00.645Z,100086.53
2022-09-04T20:16:57.419Z,100094.53
2022-09-04T20:19:53.363Z,100093.19
2022-09-04T20:22:43.054Z,100103.13
2022-09-04T20:25:33.560Z,100098.19
2022-09-04T20:28:47.854Z,100105.25
2022-09-04T20:31:28.523Z,100112.41
2022-09-04T20:34:42.270Z,100104.59
2022-09-04T20:37:29.249Z,100118.00
2022-09-04T20:40:13.597Z,100116.59
2022-09-04T20:43:46.628Z,100115.56
2022-09-04T20:51:22.717Z,100108.72
2022-09-04T20:52:51.600Z,100120.03
2022-09-04T20:53:07.001Z,100111.84
2022-09-04T20:55:33.978Z,100117.25
2022-09-04T21:03:06.534Z,100110.50
2022-09-04T21:03:07.825Z,100114.31
2022-09-04T21:05:14.785Z,100112.81
2022-09-04T21:08:01.368Z,100109.34
2022-09-04T21:10:43.079Z,100113.22
2022-09-04T21:13:29.179Z,100097.47
2022-09-04T21:16:44.464Z,100099.34
2022-09-04T21:20:01.335Z,100104.91
2022-09-04T21:22:56.785Z,100101.38
2022-09-04T21:25:51.667Z,100098.09
2022-09-04T21:28:31.096Z,100097.28
2022-09-04T21:31:43.932Z,100093.44
2022-09-04T21:34:21.256Z,100098.72
2022-09-04T21:37:15.637Z,100093.94
2022-09-04T21:40:33.641Z,100105.06
2022-09-04T21:44:07.601Z,100102.31
2022-09-04T21:47:25.977Z,100095.78
2022-09-04T21:50:16.110Z,100097.09
2022-09-04T21:53:17.930Z,100105.16
2022-09-04T22:00:22.671Z,100088.41
2022-09-04T22:02:45.029Z,100092.25
2022-09-04T22:03:07.338Z,100107.19
2022-09-04T22:06:42.522Z,100114.72
2022-09-04T22:13:27.105Z,100111.13
2022-09-04T22:13:48.387Z,100126.09
2022-09-04T22:16:33.424Z,100124.63
2022-09-04T22:19:28.293Z,100125.75
2022-09-04T22:22:23.376Z,100124.94
2022-09-04T22:25:06.792Z,100121.78
2022-09-04T22:28:08.336Z,100132.72
2022-09-04T22:31:05.009Z,100135.75
2022-09-04T22:34:15.133Z,100137.34
2022-09-04T22:37:24.960Z,100136.16
2022-09-04T22:40:33.171Z,100144.97
2022-09-04T22:43:16.256Z,100141.38
2022-09-04T22:49:11.822Z,100148.63
2022-09-04T22:52:13.859Z,100137.78
2022-09-04T22:55:39.625Z,100137.38
2022-09-04T22:58:25.443Z,100138.53
2022-09-04T23:01:31.067Z,100144.31
2022-09-04T23:04:13.431Z,100142.63
2022-09-04T23:13:52.517Z,100138.91
2022-09-04T23:13:53.495Z,100147.66
2022-09-04T23:14:05.335Z,100144.06
2022-09-04T23:17:35.509Z,100142.84
2022-09-04T23:26:34.483Z,100139.69
2022-09-04T23:26:51.090Z,100137.00
2022-09-04T23:27:04.361Z,100148.44
2022-09-04T23:29:53.894Z,100156.75
2022-09-04T23:32:57.292Z,100146.91
2022-09-04T23:35:42.965Z,100150.22
2022-09-04T23:38:57.218Z,100166.34
2022-09-04T23:41:52.666Z,100165.16
